Time;durP1;ratioP1;P1;durP2;ratioP2;P2;SDS_P1;SDS_P2;PMS_P1;PMS_P2;Temp;Humidity;BMP_temperature;BMP_pressure;BME280_temperature;BME280_humidity;BME280_pressure;Samples;Min_cycle;Max_cycle;Signal;HPM_P1;HPM_P2
2023/01/04 00:02:05;;;;;;;3.72;3.42;;;;;;;6.96;100.00;101958.03;5213442;28;20253;-88
2023/01/04 00:04:35;;;;;;;5.28;4.88;;;;;;;7.35;100.00;101986.75;5214745;28;20045;-87
2023/01/04 00:07:06;;;;;;;3.42;3.22;;;;;;;6.70;100.00;101898.94;5214860;28;20399;-87
2023/01/04 00:09:36;;;;;;;4.18;3.92;;;;;;;6.58;100.00;101888.00;5214111;28;20017;-87
2023/01/04 00:12:06;;;;;;;3.35;3.20;;;;;;;6.76;100.00;101896.25;5213793;28;20476;-88
2023/01/04 00:14:37;;;;;;;4.18;3.83;;;;;;;6.86;100.00;101900.41;5216089;28;20025;-87
2023/01/04 00:17:07;;;;;;;6.05;3.40;;;;;;;6.66;100.00;101889.63;5215195;28;20037;-88
2023/01/04 00:19:37;;;;;;;4.47;3.95;;;;;;;6.30;100.00;101839.03;5216692;28;20019;-89
2023/01/04 00:22:08;;;;;;;4.82;4.40;;;;;;;7.08;100.00;101917.97;5224656;28;20124;-88
2023/01/04 00:24:38;;;;;;;4.57;4.03;;;;;;;6.89;100.00;101889.25;5224499;28;20093;-88
2023/01/04 00:27:09;;;;;;;3.72;3.53;;;;;;;6.74;100.00;101863.41;5220586;28;20506;-87
2023/01/04 00:29:39;;;;;;;3.50;3.20;;;;;;;7.36;100.00;101974.97;5214617;28;20021;-87
2023/01/04 00:32:09;;;;;;;10.35;4.57;;;;;;;7.42;100.00;101965.28;5215754;28;20025;-87
2023/01/04 00:34:40;;;;;;;4.18;3.95;;;;;;;6.87;100.00;101861.78;5213564;28;20025;-87
2023/01/04 00:37:10;;;;;;;3.63;3.28;;;;;;;6.60;100.00;101834.94;5215636;28;20021;-87
2023/01/04 00:39:41;;;;;;;6.93;3.20;;;;;;;6.82;100.00;101869.63;5214531;28;20541;-87
2023/01/04 00:42:11;;;;;;;5.90;3.95;;;;;;;6.85;100.00;101871.91;5212499;28;20048;-87
2023/01/04 00:44:41;;;;;;;3.85;2.83;;;;;;;7.48;100.00;101966.31;5212340;28;20029;-87
2023/01/04 00:47:12;;;;;;;3.05;2.45;;;;;;;7.29;100.00;101922.28;5213993;28;20025;-87
2023/01/04 00:49:42;;;;;;;4.05;3.85;;;;;;;7.33;100.00;101910.09;5214506;28;20028;-89
2023/01/04 00:52:12;;;;;;;4.28;3.08;;;;;;;6.89;100.00;101841.75;5215270;28;20021;-85
2023/01/04 00:54:43;;;;;;;3.80;3.50;;;;;;;7.65;100.00;101960.28;5215324;28;20025;-88
2023/01/04 00:57:13;;;;;;;3.75;3.50;;;;;;;6.75;100.00;101819.44;5214202;28;20022;-88
2023/01/04 00:59:43;;;;;;;3.15;2.95;;;;;;;6.99;100.00;101844.00;5215054;28;20057;-89
2023/01/04 01:02:14;;;;;;;3.53;3.20;;;;;;;7.35;100.00;101903.47;5213353;28;20483;-87
2023/01/04 01:04:44;;;;;;;4.00;3.13;;;;;;;7.25;100.00;101872.69;5214253;28;20487;-88
2023/01/04 01:07:14;;;;;;;2.60;2.50;;;;;;;7.15;100.00;101854.31;5213657;28;20502;-87
2023/01/04 01:09:45;;;;;;;3.65;2.28;;;;;;;6.73;100.00;101783.94;5229576;28;20041;-88
2023/01/04 01:12:15;;;;;;;3.45;3.25;;;;;;;7.64;100.00;101930.91;5213230;28;20021;-88
2023/01/04 01:14:45;;;;;;;2.78;2.67;;;;;;;6.81;100.00;101798.16;5214235;28;20052;-87
2023/01/04 01:17:16;;;;;;;2.97;2.88;;;;;;;7.82;100.00;101952.56;5214755;28;20017;-87
2023/01/04 01:19:46;;;;;;;2.80;2.70;;;;;;;6.84;100.00;101787.84;5214475;28;20418;-88
2023/01/04 01:22:17;;;;;;;2.72;2.55;;;;;;;6.87;100.00;101782.06;5213545;28;20120;-88
2023/01/04 01:24:48;;;;;;;2.28;2.17;;;;;;;7.23;100.00;101846.03;5215079;28;20099;-88
2023/01/04 01:27:18;;;;;;;7.55;2.58;;;;;;;7.71;100.00;101912.91;5214303;28;20037;-87
2023/01/04 01:29:49;;;;;;;2.70;2.60;;;;;;;7.79;100.00;101907.31;5214583;28;20394;-89
2023/01/04 01:32:19;;;;;;;2.30;2.25;;;;;;;7.12;100.00;101817.13;5224214;28;20052;-89
2023/01/04 01:34:49;;;;;;;2.17;2.08;;;;;;;6.92;100.00;101735.78;5233266;28;20189;-89
2023/01/04 01:37:20;;;;;;;3.17;2.97;;;;;;;7.18;100.00;101784.06;5233968;28;20021;-88
2023/01/04 01:39:50;;;;;;;2.45;2.35;;;;;;;6.96;100.00;101747.75;5233709;28;20025;-87
2023/01/04 01:42:22;;;;;;;6.38;2.47;;;;;;;7.33;100.00;101811.50;5232383;28;20025;-88
2023/01/04 01:45:01;;;;;;;2.95;2.33;;;;;;;7.66;100.00;101857.09;5249808;28;20028;-88
2023/01/04 01:47:43;;;;;;;2.20;2.20;;;;;;;7.08;100.00;101767.56;5233211;28;20056;-89
2023/01/04 01:50:23;;;;;;;3.25;3.08;;;;;;;7.74;100.00;101847.97;5233346;28;20486;-89
2023/01/04 01:52:57;;;;;;;2.42;2.33;;;;;;;7.73;100.00;101857.88;5232937;28;20032;-88
2023/01/04 01:55:30;;;;;;;4.88;2.30;;;;;;;8.07;100.00;101897.06;5249861;28;20040;-89
2023/01/04 01:58:02;;;;;;;2.40;2.30;;;;;;;7.65;100.00;101830.41;5246961;28;20028;-89
2023/01/04 02:00:33;;;;;;;4.07;2.35;;;;;;;7.65;100.00;101827.72;5249529;28;20029;-86
2023/01/04 02:03:17;;;;;;;2.60;2.40;;;;;;;8.17;100.00;101896.56;5237595;28;20398;-88
2023/01/04 02:05:53;;;;;;;2.88;2.78;;;;;;;8.25;100.00;101919.72;5237289;28;20024;-87
2023/01/04 02:08:25;;;;;;;2.88;2.72;;;;;;;7.68;100.00;101811.16;5235822;28;20159;-88
2023/01/04 02:10:56;;;;;;;4.97;3.58;;;;;;;7.93;100.00;101867.72;5235386;28;20052;-86
2023/01/04 02:14:25;;;;;;;2.30;2.20;;;;;;;8.03;100.00;101885.06;5231644;28;20083;-87
2023/01/04 02:16:55;;;;;;;2.63;2.53;;;;;;;8.26;100.00;101898.00;5232689;28;20056;-86
2023/01/04 02:19:37;;;;;;;2.75;2.55;;;;;;;8.33;100.00;101914.13;5189909;28;20063;-86
2023/01/04 02:22:16;;;;;;;2.63;2.53;;;;;;;8.31;100.00;101908.94;5232378;28;20032;-87
2023/01/04 02:25:02;;;;;;;2.92;2.78;;;;;;;8.33;100.00;101903.38;5232780;28;20021;-88
2023/01/04 02:27:39;;;;;;;2.70;2.50;;;;;;;8.36;100.00;101905.63;5233786;28;20025;-88
2023/01/04 02:30:21;;;;;;;2.55;2.45;;;;;;;8.37;100.00;101907.28;5233617;28;20033;-87
2023/01/04 02:33:27;;;;;;;3.90;2.40;;;;;;;8.37;100.00;101904.59;5234484;28;20094;-88
2023/01/04 02:36:26;;;;;;;2.70;2.60;;;;;;;8.38;100.00;101898.97;5234080;28;20029;-88
2023/01/04 02:39:33;;;;;;;2.67;2.33;;;;;;;8.41;100.00;101892.34;5231933;28;20039;-88
2023/01/04 02:45:28;;;;;;;2.85;2.65;;;;;;;8.04;100.00;101824.84;5233244;28;20063;-88
2023/01/04 02:50:59;;;;;;;2.65;2.58;;;;;;;7.84;100.00;101766.81;5233790;28;20245;-88
2023/01/04 02:53:39;;;;;;;2.38;2.28;;;;;;;7.91;100.00;101795.31;5236972;28;20037;-87
2023/01/04 02:56:15;;;;;;;2.75;2.60;;;;;;;8.57;100.00;101883.75;5253408;28;20029;-89
2023/01/04 02:59:23;;;;;;;2.17;2.10;;;;;;;8.63;100.00;101876.69;5252723;28;20028;-87
2023/01/04 03:08:29;;;;;;;3.53;3.28;;;;;;;8.68;100.00;101864.19;5237666;28;20036;-89
2023/01/04 03:12:30;;;;;;;2.42;2.25;;;;;;;8.40;100.00;101826.91;5236081;28;20487;-88
2023/01/04 03:14:04;;;;;;;4.20;2.78;;;;;;;8.24;100.00;101805.06;5237148;28;20029;-88
2023/01/04 03:16:37;;;;;;;3.25;3.10;;;;;;;8.51;100.00;101836.16;5237269;28;20033;-88
2023/01/04 03:19:10;;;;;;;3.67;2.88;;;;;;;8.41;100.00;101803.50;5236153;28;20490;-88
2023/01/04 03:21:44;;;;;;;3.80;3.63;;;;;;;8.17;100.00;101783.56;5235925;28;20033;-87
2023/01/04 03:36:08;;;;;;;2.83;2.72;;;;;;;8.85;100.00;101829.47;5237147;28;20047;-88
2023/01/04 03:50:26;;;;;;;4.57;4.07;;;;;;;9.00;100.00;101807.56;5185827;28;20102;-69
2023/01/04 03:52:58;;;;;;;6.63;3.50;;;;;;;9.04;100.00;101806.06;5184771;28;20026;-67
2023/01/04 03:55:30;;;;;;;3.88;3.50;;;;;;;9.04;100.00;101790.72;5185466;28;20453;-69
2023/01/04 03:58:00;;;;;;;3.97;2.60;;;;;;;9.09;100.00;101809.75;5185369;28;20397;-69
2023/01/04 04:00:33;;;;;;;7.72;4.35;;;;;;;9.09;100.00;101808.94;5185476;28;20084;-69
2023/01/04 04:03:06;;;;;;;6.03;3.30;;;;;;;9.18;100.00;101794.13;5184826;28;20037;-69
2023/01/04 04:08:28;;;;;;;3.75;3.55;;;;;;;9.15;100.00;101786.47;5185299;28;20399;-68
2023/01/04 04:11:29;;;;;;;4.03;3.72;;;;;;;9.23;100.00;101805.06;5184005;28;20026;-68
2023/01/04 04:13:52;;;;;;;6.47;2.83;;;;;;;9.26;100.00;101791.09;5184160;28;20505;-68
2023/01/04 04:16:23;;;;;;;2.65;2.45;;;;;;;9.29;100.00;101793.34;5185243;28;20037;-68
2023/01/04 04:18:54;;;;;;;4.35;3.67;;;;;;;9.24;100.00;101771.63;5184822;28;20129;-68
2023/01/04 04:21:24;;;;;;;3.08;2.97;;;;;;;9.34;100.00;101788.13;5184974;28;20030;-68
2023/01/04 04:23:55;;;;;;;3.00;2.80;;;;;;;9.26;100.00;101750.69;5184110;28;20047;-68
2023/01/04 04:26:26;;;;;;;2.22;2.17;;;;;;;9.37;100.00;101762.59;5185028;28;20022;-67
2023/01/04 04:28:56;;;;;;;3.05;2.72;;;;;;;9.40;100.00;101760.28;5184937;28;20110;-67
2023/01/04 04:31:26;;;;;;;3.45;3.15;;;;;;;9.41;100.00;101764.63;5184752;28;20077;-69
2023/01/04 04:33:57;;;;;;;2.97;2.83;;;;;;;9.44;100.00;101768.72;5182743;28;20160;-67
2023/01/04 04:36:27;;;;;;;5.07;2.63;;;;;;;9.48;100.00;101751.88;5184625;28;20026;-68
2023/01/04 04:38:57;;;;;;;3.30;3.08;;;;;;;9.53;100.00;101750.38;5184718;28;20080;-70
2023/01/04 04:41:37;;;;;;;3.45;2.88;;;;;;;9.54;100.00;101741.22;5184657;28;20036;-67
2023/01/04 04:44:10;;;;;;;4.20;3.95;;;;;;;9.57;100.00;101744.28;5183955;28;20478;-68
2023/01/04 04:46:41;;;;;;;3.22;2.35;;;;;;;9.58;100.00;101740.53;5184750;28;20068;-68
2023/01/04 04:49:12;;;;;;;3.05;2.92;;;;;;;9.63;100.00;101727.19;5184645;28;20022;-68
2023/01/04 04:51:44;;;;;;;2.45;2.35;;;;;;;9.75;100.00;101729.94;5184184;28;20108;-68
2023/01/04 04:54:17;;;;;;;2.53;2.40;;;;;;;9.75;100.00;101722.69;5183915;28;20026;-68
2023/01/04 04:56:48;;;;;;;6.22;2.38;;;;;;;9.78;100.00;101718.69;5183011;28;20034;-68
2023/01/04 04:59:19;;;;;;;3.17;2.72;;;;;;;9.80;100.00;101720.13;5184362;28;20022;-68
2023/01/04 05:01:49;;;;;;;3.08;2.85;;;;;;;9.69;100.00;101714.69;5184077;28;20084;-68
2023/01/04 05:04:19;;;;;;;3.15;2.58;;;;;;;9.79;100.00;101725.75;5183960;28;20022;-67
2023/01/04 05:06:51;;;;;;;2.67;2.50;;;;;;;9.73;100.00;101697.81;5184122;28;20033;-67
2023/01/04 05:09:22;;;;;;;2.92;2.80;;;;;;;9.88;100.00;101726.22;5184255;28;20109;-67
2023/01/04 05:14:41;;;;;;;2.67;2.58;;;;;;;9.92;100.00;101717.44;5184059;28;20057;-67
2023/01/04 05:17:11;;;;;;;2.55;2.45;;;;;;;9.92;100.00;101722.84;5183662;28;20026;-68
2023/01/04 05:19:41;;;;;;;2.08;1.98;;;;;;;9.93;100.00;101702.06;5219188;28;20120;-68
2023/01/04 05:22:12;;;;;;;5.28;3.10;;;;;;;9.90;100.00;101689.03;5203693;28;20017;-68
2023/01/04 05:24:42;;;;;;;2.97;2.78;;;;;;;9.89;100.00;101690.09;5204265;28;20039;-67
2023/01/04 05:27:12;;;;;;;2.85;2.60;;;;;;;9.90;100.00;101681.78;5204282;28;20033;-68
2023/01/04 05:32:31;;;;;;;2.60;2.40;;;;;;;9.98;100.00;101692.25;5203659;28;20059;-68
2023/01/04 05:35:02;;;;;;;3.03;2.33;;;;;;;10.02;100.00;101696.13;5203892;28;20100;-68
2023/01/04 05:37:32;;;;;;;3.38;2.92;;;;;;;9.99;100.00;101684.97;5204034;28;20056;-68
2023/01/04 05:40:03;;;;;;;2.85;2.70;;;;;;;10.07;100.00;101696.25;5203821;28;20030;-67
2023/01/04 05:42:33;;;;;;;2.10;2.05;;;;;;;10.10;100.00;101681.47;5203276;28;20032;-68
2023/01/04 05:45:04;;;;;;;2.47;2.38;;;;;;;10.11;100.00;101670.41;5197852;28;20045;-68
2023/01/04 05:47:35;;;;;;;3.42;3.15;;;;;;;10.01;100.00;101647.78;5199354;28;20029;-68
2023/01/04 05:50:07;;;;;;;2.20;2.10;;;;;;;10.15;100.00;101677.00;5203382;28;20024;-68
2023/01/04 05:52:37;;;;;;;2.83;2.72;;;;;;;10.15;100.00;101673.47;5202613;28;20466;-68
2023/01/04 05:55:08;;;;;;;2.20;2.10;;;;;;;10.19;100.00;101674.69;5203802;28;20075;-68
2023/01/04 05:57:38;;;;;;;2.20;2.10;;;;;;;10.19;100.00;101682.78;5203016;28;20032;-68
2023/01/04 06:00:10;;;;;;;2.60;2.50;;;;;;;10.01;100.00;101672.88;5203458;28;20034;-67
2023/01/04 06:02:42;;;;;;;2.85;2.75;;;;;;;10.13;100.00;101691.78;5203389;28;20116;-68
2023/01/04 06:05:12;;;;;;;2.30;2.20;;;;;;;10.08;100.00;101687.09;5202567;28;20080;-68
2023/01/04 06:07:43;;;;;;;3.33;2.22;;;;;;;10.01;100.00;101685.56;5203406;28;20061;-68
2023/01/04 06:10:13;;;;;;;3.05;2.85;;;;;;;10.03;100.00;101688.84;5203723;28;20024;-68
2023/01/04 06:12:45;;;;;;;1.90;1.90;;;;;;;9.95;100.00;101676.50;5202402;28;20029;-68
2023/01/04 06:15:16;;;;;;;1.65;1.65;;;;;;;10.02;100.00;101684.50;5200717;28;20033;-69
2023/01/04 06:17:46;;;;;;;3.22;2.92;;;;;;;10.03;100.00;101686.97;5217429;28;20026;-68
2023/01/04 06:20:17;;;;;;;3.85;2.30;;;;;;;10.07;100.00;101677.38;5203322;28;20024;-68
2023/01/04 06:22:47;;;;;;;2.63;2.53;;;;;;;10.06;100.00;101669.50;5202941;28;20099;-68
2023/01/04 06:25:17;;;;;;;2.63;2.42;;;;;;;10.01;100.00;101658.56;5203296;28;20017;-68
2023/01/04 06:27:48;;;;;;;3.72;2.60;;;;;;;10.13;100.00;101675.59;5202144;28;20029;-68
2023/01/04 06:30:18;;;;;;;3.05;2.30;;;;;;;10.02;100.00;101658.34;5203141;28;20147;-68
2023/01/04 06:32:48;;;;;;;2.13;2.03;;;;;;;10.20;100.00;101675.50;5202398;28;20026;-68
2023/01/04 06:35:19;;;;;;;3.08;2.35;;;;;;;10.22;100.00;101670.72;5202867;28;20028;-68
2023/01/04 06:37:49;;;;;;;3.33;2.17;;;;;;;10.27;100.00;101693.25;5202759;28;20060;-68
2023/01/04 06:40:19;;;;;;;3.28;3.15;;;;;;;10.36;100.00;101680.22;5202716;28;20398;-68
2023/01/04 06:42:50;;;;;;;2.17;2.13;;;;;;;10.39;100.00;101674.38;5201172;28;20033;-68
2023/01/04 06:45:20;;;;;;;2.85;2.38;;;;;;;10.39;100.00;101671.66;5203269;28;20091;-68
2023/01/04 06:47:50;;;;;;;2.22;2.13;;;;;;;10.39;100.00;101667.09;5203112;28;20028;-68
2023/01/04 06:50:21;;;;;;;2.33;2.22;;;;;;;10.42;100.00;101663.06;5201215;28;20086;-68
2023/01/04 06:52:51;;;;;;;1.90;1.80;;;;;;;10.43;100.00;101678.22;5200942;28;20083;-68
2023/01/04 06:55:22;;;;;;;2.03;1.92;;;;;;;10.44;100.00;101682.56;5202790;28;20029;-68
2023/01/04 06:57:52;;;;;;;2.05;2.03;;;;;;;10.45;100.00;101668.00;5202778;28;20036;-68
2023/01/04 07:00:23;;;;;;;2.28;2.08;;;;;;;10.27;100.00;101631.16;5202926;28;20052;-68
2023/01/04 07:02:53;;;;;;;2.85;2.47;;;;;;;10.47;100.00;101655.09;5202302;28;20041;-68
2023/01/04 07:05:24;;;;;;;1.65;1.65;;;;;;;10.47;100.00;101668.59;5195257;28;20045;-68
2023/01/04 07:07:54;;;;;;;2.00;1.95;;;;;;;10.45;100.00;101663.44;5187707;28;20390;-68
2023/01/04 07:10:25;;;;;;;1.55;1.45;;;;;;;10.45;100.00;101655.31;5182070;28;20076;-68
2023/01/04 07:12:55;;;;;;;2.20;2.10;;;;;;;10.45;100.00;101668.00;5182002;28;20022;-68
2023/01/04 07:15:25;;;;;;;5.13;1.90;;;;;;;10.47;100.00;101657.78;5182169;28;20032;-68
2023/01/04 07:17:56;;;;;;;2.35;2.25;;;;;;;10.47;100.00;101655.09;5181658;28;20397;-68
2023/01/04 07:20:26;;;;;;;2.65;2.20;;;;;;;10.48;100.00;101654.03;5181080;28;20149;-68
2023/01/04 07:22:56;;;;;;;2.47;2.08;;;;;;;10.44;100.00;101659.09;5180109;28;20022;-68
2023/01/04 07:25:27;;;;;;;3.03;2.00;;;;;;;10.43;100.00;101648.50;5182049;28;20029;-68
2023/01/04 07:27:57;;;;;;;3.72;3.40;;;;;;;10.44;100.00;101648.28;5182212;28;20022;-68
2023/01/04 07:30:28;;;;;;;5.45;2.67;;;;;;;10.44;100.00;101637.47;5182039;28;20683;-68
2023/01/04 07:32:58;;;;;;;2.13;2.13;;;;;;;10.46;100.00;101643.47;5181397;28;20025;-68
2023/01/04 07:35:29;;;;;;;4.15;2.67;;;;;;;10.46;100.00;101646.16;5181955;28;20030;-68
2023/01/04 07:37:59;;;;;;;3.83;2.33;;;;;;;10.46;100.00;101632.66;5182049;28;20018;-68
2023/01/04 07:40:30;;;;;;;4.07;2.50;;;;;;;10.46;100.00;101621.03;5184982;28;20406;-68
2023/01/04 07:43:01;;;;;;;3.53;3.25;;;;;;;10.44;100.00;101617.75;5184827;28;20128;-68
2023/01/04 07:45:32;;;;;;;2.67;2.58;;;;;;;10.41;100.00;101604.72;5184828;28;20025;-68
2023/01/04 07:48:02;;;;;;;1.90;1.90;;;;;;;10.41;100.00;101597.44;5205570;28;20025;-68
2023/01/04 07:50:33;;;;;;;2.38;2.17;;;;;;;10.29;100.00;101583.16;5206082;28;20025;-69
2023/01/04 07:53:03;;;;;;;4.47;3.42;;;;;;;10.45;100.00;101617.53;5205505;28;20079;-68
2023/01/04 07:55:33;;;;;;;7.38;3.20;;;;;;;10.39;100.00;101596.88;5205276;28;20470;-68
2023/01/04 07:58:04;;;;;;;3.22;2.95;;;;;;;10.30;100.00;101583.97;5205733;28;20036;-68
2023/01/04 08:00:34;;;;;;;5.13;2.33;;;;;;;10.57;100.00;101620.22;5205922;28;20064;-68
2023/01/04 08:03:04;;;;;;;3.40;2.88;;;;;;;10.59;100.00;101612.69;5205006;28;20024;-68
2023/01/04 08:05:35;;;;;;;2.45;2.33;;;;;;;10.61;100.00;101616.00;5205635;28;20400;-68
2023/01/04 08:08:05;;;;;;;2.55;2.45;;;;;;;10.67;100.00;101616.94;5205391;28;20029;-68
2023/01/04 08:10:36;;;;;;;3.00;2.45;;;;;;;10.60;100.00;101595.44;5205646;28;20018;-68
2023/01/04 08:13:06;;;;;;;3.58;2.38;;;;;;;10.70;100.00;101606.44;5204989;28;20053;-68
2023/01/04 08:15:36;;;;;;;2.72;2.53;;;;;;;10.73;100.00;101616.78;5205359;28;20021;-68
2023/01/04 08:18:07;;;;;;;2.22;2.03;;;;;;;10.76;100.00;101612.78;5205166;28;20108;-68
2023/01/04 08:20:37;;;;;;;4.30;3.67;;;;;;;10.78;100.00;101608.78;5205280;28;20464;-68
2023/01/04 08:23:07;;;;;;;2.15;2.08;;;;;;;10.80;100.00;101614.75;5204874;28;20389;-68
2023/01/04 08:25:38;;;;;;;2.95;2.17;;;;;;;10.81;100.00;101621.81;5203876;28;20084;-68
2023/01/04 08:28:08;;;;;;;2.92;2.47;;;;;;;10.88;100.00;101610.88;5205176;28;20128;-68
2023/01/04 08:30:39;;;;;;;3.30;2.08;;;;;;;10.93;100.00;101616.38;5205291;28;20473;-69
2023/01/04 08:33:15;;;;;;;2.17;2.08;;;;;;;10.92;100.00;101608.50;5204264;28;20485;-68
2023/01/04 08:35:45;;;;;;;2.45;2.35;;;;;;;10.93;100.00;101626.38;5204822;28;20112;-68
2023/01/04 08:38:16;;;;;;;2.63;2.42;;;;;;;10.95;100.00;101643.16;5205065;28;20144;-68
2023/01/04 08:40:46;;;;;;;3.40;2.33;;;;;;;10.95;100.00;101635.88;5205024;28;20101;-69
2023/01/04 08:43:17;;;;;;;2.60;2.42;;;;;;;10.97;100.00;101633.72;5204025;28;20021;-69
2023/01/04 08:45:47;;;;;;;2.25;2.15;;;;;;;10.98;100.00;101639.97;5204678;28;20438;-69
2023/01/04 08:48:17;;;;;;;2.90;2.80;;;;;;;10.98;100.00;101639.97;5205199;28;20386;-69
2023/01/04 08:50:48;;;;;;;3.90;2.30;;;;;;;10.98;100.00;101632.69;5204618;28;20541;-69
2023/01/04 08:53:18;;;;;;;2.58;2.47;;;;;;;10.96;100.00;101642.94;5204430;28;20401;-69
2023/01/04 08:55:50;;;;;;;4.32;2.67;;;;;;;10.87;100.00;101643.53;5204463;28;20022;-69
2023/01/04 08:58:21;;;;;;;3.15;3.05;;;;;;;10.71;100.00;101643.19;5204912;28;20021;-70
2023/01/04 09:00:53;;;;;;;2.70;2.53;;;;;;;10.51;100.00;101621.16;5204864;28;20029;-71
2023/01/04 09:03:23;;;;;;;4.20;3.20;;;;;;;10.57;100.00;101644.53;5204328;28;20168;-71
2023/01/04 09:06:00;;;;;;;3.20;3.10;;;;;;;10.49;100.00;101642.19;5204693;28;20088;-71
2023/01/04 09:08:32;;;;;;;3.03;2.20;;;;;;;10.54;100.00;101646.88;5204192;28;20401;-71
2023/01/04 09:11:10;;;;;;;3.03;2.92;;;;;;;10.50;100.00;101643.81;5204597;28;20053;-71
2023/01/04 09:13:42;;;;;;;2.92;2.72;;;;;;;10.48;100.00;101627.03;5203820;28;20033;-71
2023/01/04 09:16:15;;;;;;;4.55;3.42;;;;;;;10.53;100.00;101637.94;5204261;28;20052;-71
2023/01/04 09:18:46;;;;;;;3.10;2.80;;;;;;;10.53;100.00;101646.06;5203940;28;20021;-70
2023/01/04 09:21:19;;;;;;;4.25;2.58;;;;;;;10.58;100.00;101650.75;5204443;28;20393;-70
2023/01/04 09:23:49;;;;;;;4.60;3.08;;;;;;;10.60;100.00;101652.16;5203398;28;20028;-70
2023/01/04 09:26:22;;;;;;;3.90;3.05;;;;;;;10.61;100.00;101648.41;5204003;28;20801;-70
2023/01/04 09:28:54;;;;;;;7.25;2.95;;;;;;;10.63;100.00;101632.78;5203955;28;20029;-71
2023/01/04 09:31:26;;;;;;;6.35;3.47;;;;;;;10.64;100.00;101639.81;5203760;28;20017;-71
2023/01/04 09:33:57;;;;;;;2.65;2.55;;;;;;;10.65;100.00;101646.06;5203265;28;20037;-71
2023/01/04 09:36:28;;;;;;;2.83;2.72;;;;;;;10.66;100.00;101626.91;5203843;28;20021;-71
2023/01/04 09:38:58;;;;;;;2.42;2.33;;;;;;;10.54;100.00;101623.38;5203933;28;20175;-71
2023/01/04 09:41:34;;;;;;;6.28;3.08;;;;;;;10.66;100.00;101628.78;5232516;22;20060;-65
2023/01/04 09:44:07;;;;;;;2.83;2.60;;;;;;;10.75;100.00;101638.16;5223601;28;20021;-65
2023/01/04 09:46:43;;;;;;;2.83;2.72;;;;;;;10.77;100.00;101642.25;5225807;28;20397;-64
2023/01/04 09:49:16;;;;;;;4.07;3.67;;;;;;;10.82;100.00;101641.53;5225442;28;20032;-66
2023/01/04 09:52:09;;;;;;;3.00;2.80;;;;;;;10.87;100.00;101636.25;5225206;28;20028;-65
2023/01/04 09:54:45;;;;;;;3.10;2.90;;;;;;;10.90;100.00;101632.25;5185930;28;20041;-67
2023/01/04 09:57:25;;;;;;;4.20;3.55;;;;;;;10.50;100.00;101562.81;5225135;28;20025;-65
2023/01/04 10:00:12;;;;;;;5.28;3.92;;;;;;;10.90;100.00;101629.56;5224984;28;20028;-65
2023/01/04 10:02:55;;;;;;;2.40;2.30;;;;;;;10.97;100.00;101635.66;5223923;28;20029;-66
2023/01/04 10:05:28;;;;;;;3.72;3.33;;;;;;;11.03;100.00;101626.56;5224944;28;20033;-66
2023/01/04 10:08:00;;;;;;;4.10;2.33;;;;;;;11.05;100.00;101622.56;5225539;28;20100;-66
2023/01/04 10:10:48;;;;;;;5.63;3.08;;;;;;;11.12;100.00;101619.72;5225223;28;20049;-64
2023/01/04 10:13:25;;;;;;;3.30;3.05;;;;;;;11.15;100.00;101630.88;5224580;28;20455;-68
2023/01/04 10:16:14;;;;;;;3.63;2.65;;;;;;;11.17;100.00;101622.53;5224993;28;20029;-67
2023/01/04 10:18:51;;;;;;;3.35;2.22;;;;;;;11.18;100.00;101618.75;5230419;28;20544;-66
2023/01/04 10:21:35;;;;;;;2.80;2.58;;;;;;;11.26;100.00;101637.28;5245852;28;20444;-66
2023/01/04 10:24:05;;;;;;;1.85;1.85;;;;;;;11.30;100.00;101615.97;5245247;28;20054;-67
2023/01/04 10:26:49;;;;;;;2.63;2.53;;;;;;;11.31;100.00;101623.84;5245726;28;20029;-64
2023/01/04 10:29:37;;;;;;;2.05;2.00;;;;;;;11.33;100.00;101624.44;5246057;28;20415;-66
2023/01/04 10:32:30;;;;;;;2.53;2.33;;;;;;;11.32;100.00;101611.97;5245298;28;20035;-66
2023/01/04 10:35:12;;;;;;;2.00;1.90;;;;;;;11.32;100.00;101625.50;5245531;28;20016;-65
2023/01/04 10:37:43;;;;;;;2.83;2.63;;;;;;;11.35;100.00;101625.03;5245359;28;20035;-69
2023/01/04 10:40:17;;;;;;;3.42;3.22;;;;;;;11.34;100.00;101622.56;5245224;28;20246;-65
2023/01/04 10:43:09;;;;;;;1.92;1.92;;;;;;;11.36;100.00;101650.19;5244958;28;20031;-66
2023/01/04 10:45:48;;;;;;;2.45;2.35;;;;;;;11.37;100.00;101631.00;5245245;28;20024;-66
2023/01/04 10:48:32;;;;;;;1.75;1.75;;;;;;;11.37;100.00;101617.47;5245083;28;20028;-68
2023/01/04 10:51:05;;;;;;;2.78;2.67;;;;;;;11.32;100.00;101614.69;5245226;28;20369;-65
2023/01/04 10:54:02;;;;;;;1.90;1.90;;;;;;;11.30;100.00;101606.00;5244811;28;20372;-66
2023/01/04 10:56:59;;;;;;;2.25;2.15;;;;;;;11.23;100.00;101616.16;5233477;28;20043;-66
2023/01/04 10:59:42;;;;;;;2.22;2.08;;;;;;;11.19;100.00;101623.09;5245473;28;20019;-66
2023/01/04 11:02:43;;;;;;;2.28;2.17;;;;;;;11.10;100.00;101603.75;5244379;28;20032;-66
2023/01/04 11:05:20;;;;;;;2.45;2.10;;;;;;;11.01;100.00;101591.66;5245458;28;20031;-66
2023/01/04 11:07:50;;;;;;;2.20;2.10;;;;;;;10.98;100.00;101602.94;5227455;28;20021;-66
2023/01/04 11:10:34;;;;;;;2.35;2.22;;;;;;;10.96;100.00;101599.69;5245056;28;20024;-66
2023/01/04 11:13:05;;;;;;;1.90;1.80;;;;;;;10.94;100.00;101595.59;5245253;28;20375;-65
2023/01/04 11:15:35;;;;;;;2.83;2.63;;;;;;;10.87;100.00;101592.19;5248313;28;20028;-66
2023/01/04 11:18:08;;;;;;;2.47;2.10;;;;;;;10.90;100.00;101606.06;5249120;28;20365;-68
2023/01/04 11:20:39;;;;;;;2.17;1.90;;;;;;;10.88;100.00;101608.16;5248776;28;20035;-66
2023/01/04 11:23:14;;;;;;;4.13;2.10;;;;;;;10.85;100.00;101602.41;5248391;28;20021;-66
2023/01/04 11:26:04;;;;;;;2.17;1.92;;;;;;;10.78;100.00;101603.38;5230569;28;20035;-66
2023/01/04 11:28:50;;;;;;;2.85;2.40;;;;;;;10.72;100.00;101590.81;5248345;28;20103;-65
2023/01/04 11:31:48;;;;;;;2.03;1.92;;;;;;;10.82;100.00;101611.81;5248618;28;20055;-66
2023/01/04 11:34:18;;;;;;;2.47;2.38;;;;;;;10.82;100.00;101604.53;5248619;28;20032;-66
2023/01/04 11:36:49;;;;;;;1.67;1.67;;;;;;;10.82;100.00;101615.34;5248325;28;20066;-67
2023/01/04 11:39:23;;;;;;;2.95;2.85;;;;;;;10.84;100.00;101604.31;5248400;28;20051;-67
2023/01/04 11:41:58;;;;;;;5.40;2.90;;;;;;;10.85;100.00;101605.94;5247084;28;20045;-66
2023/01/04 11:44:31;;;;;;;1.58;1.58;;;;;;;10.88;100.00;101612.75;5247729;28;20028;-66
2023/01/04 11:47:20;;;;;;;1.75;1.75;;;;;;;10.87;100.00;101603.00;5248329;28;20027;-66
2023/01/04 11:49:51;;;;;;;2.45;2.30;;;;;;;10.87;100.00;101605.72;5229998;28;20020;-66
2023/01/04 11:52:34;;;;;;;2.55;2.13;;;;;;;10.86;100.00;101602.19;5248204;28;20021;-66
2023/01/04 11:55:26;;;;;;;1.70;1.60;;;;;;;10.83;100.00;101597.25;5248356;28;20021;-66
2023/01/04 11:58:11;;;;;;;1.80;1.80;;;;;;;10.83;100.00;101602.66;5248276;28;20056;-65
2023/01/04 12:00:56;;;;;;;2.25;2.15;;;;;;;10.81;100.00;101594.78;5248116;28;20037;-66
2023/01/04 12:03:28;;;;;;;3.40;2.33;;;;;;;10.82;100.00;101603.72;5247166;28;20032;-66
2023/01/04 12:05:59;;;;;;;2.42;2.38;;;;;;;10.79;100.00;101605.00;5247844;28;20500;-65
2023/01/04 12:08:32;;;;;;;1.92;1.83;;;;;;;10.83;100.00;101600.78;5247982;28;20032;-66
2023/01/04 12:11:05;;;;;;;2.38;2.05;;;;;;;10.82;100.00;101604.53;5247671;28;20070;-66
2023/01/04 12:13:36;;;;;;;2.03;1.92;;;;;;;10.82;100.00;101588.31;5247098;28;20028;-67
2023/01/04 12:16:09;;;;;;;1.92;1.88;;;;;;;10.85;100.00;101605.13;5247063;28;20021;-67
2023/01/04 12:18:44;;;;;;;1.77;1.77;;;;;;;10.86;100.00;101604.06;5248016;28;20029;-66
2023/01/04 12:21:24;;;;;;;2.90;2.10;;;;;;;10.88;100.00;101610.06;5229678;28;20020;-65
2023/01/04 12:23:54;;;;;;;;;;;;;;;10.90;100.00;101602.53;5247288;28;20488;-63
2023/01/04 12:26:25;;;;;;;1.70;1.70;;;;;;;10.94;100.00;101592.88;5245898;28;19939;-65
2023/01/04 12:29:23;;;;;;;2.03;1.92;;;;;;;10.95;100.00;101598.06;5212925;28;20020;-66
2023/01/04 12:32:15;;;;;;;1.55;1.55;;;;;;;10.99;100.00;101606.47;5246955;28;20029;-67
2023/01/04 12:34:47;;;;;;;1.92;1.83;;;;;;;11.02;100.00;101593.31;5236939;28;20043;-63
2023/01/04 12:37:47;;;;;;;2.38;2.28;;;;;;;11.10;100.00;101584.00;5247122;28;20116;-64
2023/01/04 12:40:45;;;;;;;2.55;2.35;;;;;;;11.10;100.00;101573.19;5246972;28;20036;-64